METAR: CYYC 241600Z 36011KT 40SM FEW087 SCT300 15/00 A2995 RMK ACC1CI3 SLP148 DENSITY ALT 4400FT

TAF: CYYC 241440Z 2415/2512 35010KT P6SM FEW080 BKN300 BECMG 2416/2418 BKN080 FM241800 35010KT P6SM BKN080 TEMPO 2418/2421 P6SM -SHRA BECMG 2419/2421 20012KT FM242100 22010KT P6SM BKN080 TEMPO 2421/2501 P6SM -SHRA PROB30 2421/2501 VRB15G25KT 5SM TSRA BKN060CB FM250100 24008KT P6SM SCT100 BKN200 BECMG 2502/2504 28008KT FM251000 29008KT P6SM BKN080 RMK NXT FCST BY 241800Z